sensor_id;sensor_type;location;lat;lon;timestamp;temperature;humidity
50804;DHT22;37205;51.434;6.756;2024-03-25T00:01:50;6.20;1.00
50804;DHT22;37205;51.434;6.756;2024-03-25T00:04:19;6.20;1.00
50804;DHT22;37205;51.434;6.756;2024-03-25T00:06:47;6.20;1.00
50804;DHT22;37205;51.434;6.756;2024-03-25T00:09:12;6.20;1.00
50804;DHT22;37205;51.434;6.756;2024-03-25T00:11:40;6.20;1.00
50804;DHT22;37205;51.434;6.756;2024-03-25T00:14:05;6.20;1.00
50804;DHT22;37205;51.434;6.756;2024-03-25T00:16:31;6.20;1.00
50804;DHT22;37205;51.434;6.756;2024-03-25T00:18:56;6.10;1.00
50804;DHT22;37205;51.434;6.756;2024-03-25T00:21:22;6.00;1.00
50804;DHT22;37205;51.434;6.756;2024-03-25T00:23:48;6.00;1.00
50804;DHT22;37205;51.434;6.756;2024-03-25T00:26:13;6.00;1.00
50804;DHT22;37205;51.434;6.756;2024-03-25T00:28:39;5.80;3.30
50804;DHT22;37205;51.434;6.756;2024-03-25T00:31:05;5.80;18.30
50804;DHT22;37205;51.434;6.756;2024-03-25T00:33:30;5.80;23.90
50804;DHT22;37205;51.434;6.756;2024-03-25T00:35:56;5.80;29.80
50804;DHT22;37205;51.434;6.756;2024-03-25T00:38:21;5.80;48.80
50804;DHT22;37205;51.434;6.756;2024-03-25T00:40:47;5.70;60.20
50804;DHT22;37205;51.434;6.756;2024-03-25T00:43:12;5.70;78.50
50804;DHT22;37205;51.434;6.756;2024-03-25T00:45:38;5.70;86.80
50804;DHT22;37205;51.434;6.756;2024-03-25T00:48:04;5.60;90.10
50804;DHT22;37205;51.434;6.756;2024-03-25T00:50:29;5.60;94.00
50804;DHT22;37205;51.434;6.756;2024-03-25T00:52:56;5.50;96.20
50804;DHT22;37205;51.434;6.756;2024-03-25T00:55:22;5.50;97.50
50804;DHT22;37205;51.434;6.756;2024-03-25T00:57:47;5.50;99.90
50804;DHT22;37205;51.434;6.756;2024-03-25T01:00:13;5.40;99.90
50804;DHT22;37205;51.434;6.756;2024-03-25T01:02:41;5.40;99.90
50804;DHT22;37205;51.434;6.756;2024-03-25T01:05:07;5.40;99.90
50804;DHT22;37205;51.434;6.756;2024-03-25T01:07:33;5.40;99.90
50804;DHT22;37205;51.434;6.756;2024-03-25T01:09:58;5.40;99.90
50804;DHT22;37205;51.434;6.756;2024-03-25T01:12:25;5.40;99.90
50804;DHT22;37205;51.434;6.756;2024-03-25T01:14:51;5.30;99.90
50804;DHT22;37205;51.434;6.756;2024-03-25T01:17:16;5.30;99.90
50804;DHT22;37205;51.434;6.756;2024-03-25T01:19:42;5.30;99.90
50804;DHT22;37205;51.434;6.756;2024-03-25T01:22:08;5.20;99.90
50804;DHT22;37205;51.434;6.756;2024-03-25T01:24:34;5.20;99.90
50804;DHT22;37205;51.434;6.756;2024-03-25T01:27:00;5.20;99.90
50804;DHT22;37205;51.434;6.756;2024-03-25T01:29:25;5.30;99.90
50804;DHT22;37205;51.434;6.756;2024-03-25T01:31:51;5.20;99.90
50804;DHT22;37205;51.434;6.756;2024-03-25T01:34:17;5.20;99.90
50804;DHT22;37205;51.434;6.756;2024-03-25T01:36:42;5.10;99.90
50804;DHT22;37205;51.434;6.756;2024-03-25T01:39:08;5.00;99.90
50804;DHT22;37205;51.434;6.756;2024-03-25T01:41:34;5.00;99.90
50804;DHT22;37205;51.434;6.756;2024-03-25T01:44:00;4.90;99.90
50804;DHT22;37205;51.434;6.756;2024-03-25T01:46:27;4.90;99.90
50804;DHT22;37205;51.434;6.756;2024-03-25T01:48:53;4.80;99.90
50804;DHT22;37205;51.434;6.756;2024-03-25T01:51:20;4.80;99.90
50804;DHT22;37205;51.434;6.756;2024-03-25T01:53:47;4.80;99.90
50804;DHT22;37205;51.434;6.756;2024-03-25T01:56:14;4.70;99.90
50804;DHT22;37205;51.434;6.756;2024-03-25T01:58:40;4.70;99.90
50804;DHT22;37205;51.434;6.756;2024-03-25T02:01:06;4.70;99.90
50804;DHT22;37205;51.434;6.756;2024-03-25T02:03:33;4.70;99.90
50804;DHT22;37205;51.434;6.756;2024-03-25T02:06:02;4.70;99.90
50804;DHT22;37205;51.434;6.756;2024-03-25T02:08:29;4.70;99.90
50804;DHT22;37205;51.434;6.756;2024-03-25T02:10:56;4.60;99.90
50804;DHT22;37205;51.434;6.756;2024-03-25T02:13:23;4.60;99.90
50804;DHT22;37205;51.434;6.756;2024-03-25T02:15:49;4.50;99.90
50804;DHT22;37205;51.434;6.756;2024-03-25T02:18:17;4.50;99.90
50804;DHT22;37205;51.434;6.756;2024-03-25T02:20:43;4.50;99.90
50804;DHT22;37205;51.434;6.756;2024-03-25T02:23:09;4.50;99.90
50804;DHT22;37205;51.434;6.756;2024-03-25T02:25:38;4.50;99.90
50804;DHT22;37205;51.434;6.756;2024-03-25T02:28:04;4.50;99.90
50804;DHT22;37205;51.434;6.756;2024-03-25T02:30:30;4.60;99.90
50804;DHT22;37205;51.434;6.756;2024-03-25T02:32:55;4.60;99.90
50804;DHT22;37205;51.434;6.756;2024-03-25T02:35:21;4.60;99.90
50804;DHT22;37205;51.434;6.756;2024-03-25T02:37:47;4.60;99.90
50804;DHT22;37205;51.434;6.756;2024-03-25T02:40:14;4.40;99.90
50804;DHT22;37205;51.434;6.756;2024-03-25T02:42:40;4.30;99.90
50804;DHT22;37205;51.434;6.756;2024-03-25T02:45:06;4.30;99.90
50804;DHT22;37205;51.434;6.756;2024-03-25T02:47:32;4.40;99.90
50804;DHT22;37205;51.434;6.756;2024-03-25T02:49:57;4.40;99.90
50804;DHT22;37205;51.434;6.756;2024-03-25T02:52:23;4.40;99.90
50804;DHT22;37205;51.434;6.756;2024-03-25T02:54:48;4.40;99.90
50804;DHT22;37205;51.434;6.756;2024-03-25T02:57:14;4.40;99.90
50804;DHT22;37205;51.434;6.756;2024-03-25T02:59:39;4.40;99.90
50804;DHT22;37205;51.434;6.756;2024-03-25T03:02:05;4.30;99.90
50804;DHT22;37205;51.434;6.756;2024-03-25T03:04:30;4.40;99.90
50804;DHT22;37205;51.434;6.756;2024-03-25T03:06:56;4.40;99.90
50804;DHT22;37205;51.434;6.756;2024-03-25T03:09:22;4.50;99.90
50804;DHT22;37205;51.434;6.756;2024-03-25T03:11:48;4.50;99.90
50804;DHT22;37205;51.434;6.756;2024-03-25T03:14:14;4.50;99.90
50804;DHT22;37205;51.434;6.756;2024-03-25T03:16:40;4.60;99.90
50804;DHT22;37205;51.434;6.756;2024-03-25T03:19:05;4.60;99.90
50804;DHT22;37205;51.434;6.756;2024-03-25T03:21:31;4.50;99.90
50804;DHT22;37205;51.434;6.756;2024-03-25T03:23:57;4.60;99.90
50804;DHT22;37205;51.434;6.756;2024-03-25T03:26:23;4.60;99.90
50804;DHT22;37205;51.434;6.756;2024-03-25T03:28:54;4.60;99.90
50804;DHT22;37205;51.434;6.756;2024-03-25T03:31:20;4.60;99.90
50804;DHT22;37205;51.434;6.756;2024-03-25T03:33:49;4.70;99.90
50804;DHT22;37205;51.434;6.756;2024-03-25T03:36:18;4.70;99.90
50804;DHT22;37205;51.434;6.756;2024-03-25T03:38:44;4.80;99.90
50804;DHT22;37205;51.434;6.756;2024-03-25T03:41:10;4.80;99.90
50804;DHT22;37205;51.434;6.756;2024-03-25T03:43:36;4.70;99.90
50804;DHT22;37205;51.434;6.756;2024-03-25T03:46:02;4.70;99.90
50804;DHT22;37205;51.434;6.756;2024-03-25T03:48:28;4.70;99.90
50804;DHT22;37205;51.434;6.756;2024-03-25T03:50:53;4.60;99.90
50804;DHT22;37205;51.434;6.756;2024-03-25T03:53:19;4.60;99.90
50804;DHT22;37205;51.434;6.756;2024-03-25T03:55:55;4.60;99.90
50804;DHT22;37205;51.434;6.756;2024-03-25T03:58:22;4.70;99.90
50804;DHT22;37205;51.434;6.756;2024-03-25T04:00:49;4.70;99.90
50804;DHT22;37205;51.434;6.756;2024-03-25T04:03:17;4.70;99.90
50804;DHT22;37205;51.434;6.756;2024-03-25T04:05:55;4.80;99.90
50804;DHT22;37205;51.434;6.756;2024-03-25T04:08:21;4.80;99.90
50804;DHT22;37205;51.434;6.756;2024-03-25T04:10:46;4.80;99.90
50804;DHT22;37205;51.434;6.756;2024-03-25T04:13:12;4.80;99.90
50804;DHT22;37205;51.434;6.756;2024-03-25T04:15:39;4.80;99.90
50804;DHT22;37205;51.434;6.756;2024-03-25T04:18:05;4.80;99.90
50804;DHT22;37205;51.434;6.756;2024-03-25T04:20:41;4.80;99.90
50804;DHT22;37205;51.434;6.756;2024-03-25T04:23:07;4.80;99.90
50804;DHT22;37205;51.434;6.756;2024-03-25T04:25:33;4.70;99.90
50804;DHT22;37205;51.434;6.756;2024-03-25T04:27:59;4.70;99.90
50804;DHT22;37205;51.434;6.756;2024-03-25T04:30:25;4.70;99.90
50804;DHT22;37205;51.434;6.756;2024-03-25T04:32:51;4.80;99.90
50804;DHT22;37205;51.434;6.756;2024-03-25T04:35:16;4.80;99.90
50804;DHT22;37205;51.434;6.756;2024-03-25T04:37:42;4.90;99.90
50804;DHT22;37205;51.434;6.756;2024-03-25T04:40:08;4.90;99.90
50804;DHT22;37205;51.434;6.756;2024-03-25T04:42:33;4.90;99.90
50804;DHT22;37205;51.434;6.756;2024-03-25T04:44:59;4.80;99.90
50804;DHT22;37205;51.434;6.756;2024-03-25T04:47:25;4.80;99.90
50804;DHT22;37205;51.434;6.756;2024-03-25T04:49:50;4.80;99.90
50804;DHT22;37205;51.434;6.756;2024-03-25T04:52:17;4.80;99.90
50804;DHT22;37205;51.434;6.756;2024-03-25T04:54:43;4.70;99.90
50804;DHT22;37205;51.434;6.756;2024-03-25T04:57:08;4.60;99.90
50804;DHT22;37205;51.434;6.756;2024-03-25T04:59:34;4.60;99.90
50804;DHT22;37205;51.434;6.756;2024-03-25T05:02:00;4.50;99.90
50804;DHT22;37205;51.434;6.756;2024-03-25T05:04:26;4.60;99.90
50804;DHT22;37205;51.434;6.756;2024-03-25T05:06:51;4.50;99.90
50804;DHT22;37205;51.434;6.756;2024-03-25T05:09:17;4.40;99.90
50804;DHT22;37205;51.434;6.756;2024-03-25T05:11:43;4.30;99.90
50804;DHT22;37205;51.434;6.756;2024-03-25T05:14:08;4.30;99.90
50804;DHT22;37205;51.434;6.756;2024-03-25T05:16:34;4.40;99.90
50804;DHT22;37205;51.434;6.756;2024-03-25T05:18:59;4.40;99.90
50804;DHT22;37205;51.434;6.756;2024-03-25T05:21:25;4.40;99.90
50804;DHT22;37205;51.434;6.756;2024-03-25T05:23:50;4.40;99.90
50804;DHT22;37205;51.434;6.756;2024-03-25T05:26:16;4.40;99.90
50804;DHT22;37205;51.434;6.756;2024-03-25T05:28:42;4.50;99.90
50804;DHT22;37205;51.434;6.756;2024-03-25T05:31:08;4.50;99.90
50804;DHT22;37205;51.434;6.756;2024-03-25T05:33:34;4.50;99.90
50804;DHT22;37205;51.434;6.756;2024-03-25T05:36:00;4.60;99.90
50804;DHT22;37205;51.434;6.756;2024-03-25T05:38:26;4.70;99.90
50804;DHT22;37205;51.434;6.756;2024-03-25T05:40:52;4.80;99.90
50804;DHT22;37205;51.434;6.756;2024-03-25T05:43:17;4.80;99.90
50804;DHT22;37205;51.434;6.756;2024-03-25T05:45:50;5.00;99.90
50804;DHT22;37205;51.434;6.756;2024-03-25T05:48:16;5.00;99.90
50804;DHT22;37205;51.434;6.756;2024-03-25T05:50:41;5.00;99.90
50804;DHT22;37205;51.434;6.756;2024-03-25T05:53:07;5.10;99.90
50804;DHT22;37205;51.434;6.756;2024-03-25T05:55:33;5.20;99.90
50804;DHT22;37205;51.434;6.756;2024-03-25T05:57:59;5.30;99.90
50804;DHT22;37205;51.434;6.756;2024-03-25T06:00:24;5.40;99.90
50804;DHT22;37205;51.434;6.756;2024-03-25T06:02:51;5.30;99.90
50804;DHT22;37205;51.434;6.756;2024-03-25T06:05:18;5.30;99.90
50804;DHT22;37205;51.434;6.756;2024-03-25T06:07:44;5.30;99.90
50804;DHT22;37205;51.434;6.756;2024-03-25T06:10:09;5.40;99.90
50804;DHT22;37205;51.434;6.756;2024-03-25T06:12:35;5.40;99.90
50804;DHT22;37205;51.434;6.756;2024-03-25T06:15:00;5.50;99.90
50804;DHT22;37205;51.434;6.756;2024-03-25T06:17:26;5.50;99.90
50804;DHT22;37205;51.434;6.756;2024-03-25T06:19:51;5.60;99.90
50804;DHT22;37205;51.434;6.756;2024-03-25T06:22:17;5.60;99.90
50804;DHT22;37205;51.434;6.756;2024-03-25T06:24:43;5.70;99.90
50804;DHT22;37205;51.434;6.756;2024-03-25T06:27:10;5.60;98.40
50804;DHT22;37205;51.434;6.756;2024-03-25T06:29:35;5.60;99.90
50804;DHT22;37205;51.434;6.756;2024-03-25T06:32:01;5.70;99.90
50804;DHT22;37205;51.434;6.756;2024-03-25T06:34:45;5.70;99.90
50804;DHT22;37205;51.434;6.756;2024-03-25T06:37:11;5.80;99.90
50804;DHT22;37205;51.434;6.756;2024-03-25T06:39:36;5.70;99.90
50804;DHT22;37205;51.434;6.756;2024-03-25T06:42:02;5.80;99.90
50804;DHT22;37205;51.434;6.756;2024-03-25T06:44:27;5.90;99.90
50804;DHT22;37205;51.434;6.756;2024-03-25T06:46:53;5.90;98.10
50804;DHT22;37205;51.434;6.756;2024-03-25T06:49:18;5.90;90.20
50804;DHT22;37205;51.434;6.756;2024-03-25T06:51:44;5.80;67.80
50804;DHT22;37205;51.434;6.756;2024-03-25T06:54:09;5.80;82.00
50804;DHT22;37205;51.434;6.756;2024-03-25T06:56:35;5.70;79.30
50804;DHT22;37205;51.434;6.756;2024-03-25T06:59:00;5.60;70.90
50804;DHT22;37205;51.434;6.756;2024-03-25T07:01:26;5.50;70.80
50804;DHT22;37205;51.434;6.756;2024-03-25T07:03:51;5.50;85.40
50804;DHT22;37205;51.434;6.756;2024-03-25T07:06:19;5.50;91.80
50804;DHT22;37205;51.434;6.756;2024-03-25T07:08:44;5.60;93.20
50804;DHT22;37205;51.434;6.756;2024-03-25T07:11:10;5.60;92.90
50804;DHT22;37205;51.434;6.756;2024-03-25T07:13:35;5.60;91.90
50804;DHT22;37205;51.434;6.756;2024-03-25T07:16:01;5.80;82.30
50804;DHT22;37205;51.434;6.756;2024-03-25T07:18:26;5.90;86.50
50804;DHT22;37205;51.434;6.756;2024-03-25T07:20:52;6.00;90.50
50804;DHT22;37205;51.434;6.756;2024-03-25T07:23:17;6.10;95.50
50804;DHT22;37205;51.434;6.756;2024-03-25T07:25:44;6.40;87.70
50804;DHT22;37205;51.434;6.756;2024-03-25T07:28:09;6.40;51.50
50804;DHT22;37205;51.434;6.756;2024-03-25T07:30:35;6.50;14.30
50804;DHT22;37205;51.434;6.756;2024-03-25T07:33:00;6.60;1.00
50804;DHT22;37205;51.434;6.756;2024-03-25T07:35:26;6.60;1.00
50804;DHT22;37205;51.434;6.756;2024-03-25T07:37:52;6.60;1.00
50804;DHT22;37205;51.434;6.756;2024-03-25T07:40:21;6.70;1.00
50804;DHT22;37205;51.434;6.756;2024-03-25T07:42:47;6.80;1.00
50804;DHT22;37205;51.434;6.756;2024-03-25T07:45:14;6.80;1.00
50804;DHT22;37205;51.434;6.756;2024-03-25T07:47:40;6.90;1.00
50804;DHT22;37205;51.434;6.756;2024-03-25T07:50:06;6.90;1.00
50804;DHT22;37205;51.434;6.756;2024-03-25T07:52:31;7.00;1.00
50804;DHT22;37205;51.434;6.756;2024-03-25T07:54:57;7.00;1.00
50804;DHT22;37205;51.434;6.756;2024-03-25T07:57:23;7.00;1.00
50804;DHT22;37205;51.434;6.756;2024-03-25T07:59:49;7.20;1.00
50804;DHT22;37205;51.434;6.756;2024-03-25T08:02:15;7.30;1.00
50804;DHT22;37205;51.434;6.756;2024-03-25T08:04:40;7.30;1.00
50804;DHT22;37205;51.434;6.756;2024-03-25T08:07:06;7.30;1.00
50804;DHT22;37205;51.434;6.756;2024-03-25T08:09:31;7.30;1.00
50804;DHT22;37205;51.434;6.756;2024-03-25T08:11:57;7.30;1.00
50804;DHT22;37205;51.434;6.756;2024-03-25T08:14:22;7.30;99.90
50804;DHT22;37205;51.434;6.756;2024-03-25T08:16:48;7.30;1.00
50804;DHT22;37205;51.434;6.756;2024-03-25T08:19:14;7.30;1.00
50804;DHT22;37205;51.434;6.756;2024-03-25T08:21:40;7.30;1.00
50804;DHT22;37205;51.434;6.756;2024-03-25T08:24:05;7.30;1.00
50804;DHT22;37205;51.434;6.756;2024-03-25T08:26:31;7.30;99.90
50804;DHT22;37205;51.434;6.756;2024-03-25T08:28:57;7.40;99.90
50804;DHT22;37205;51.434;6.756;2024-03-25T08:31:22;7.40;99.90
50804;DHT22;37205;51.434;6.756;2024-03-25T08:33:48;7.40;1.00
50804;DHT22;37205;51.434;6.756;2024-03-25T08:36:13;7.40;1.00
50804;DHT22;37205;51.434;6.756;2024-03-25T08:38:39;7.40;99.90
50804;DHT22;37205;51.434;6.756;2024-03-25T08:41:04;7.40;1.00
50804;DHT22;37205;51.434;6.756;2024-03-25T08:43:30;7.50;1.00
50804;DHT22;37205;51.434;6.756;2024-03-25T08:45:55;7.60;1.00
50804;DHT22;37205;51.434;6.756;2024-03-25T08:48:21;7.80;1.00
50804;DHT22;37205;51.434;6.756;2024-03-25T08:50:46;7.90;99.90
50804;DHT22;37205;51.434;6.756;2024-03-25T08:53:12;8.10;99.90
50804;DHT22;37205;51.434;6.756;2024-03-25T08:55:38;8.30;1.00
50804;DHT22;37205;51.434;6.756;2024-03-25T08:58:04;8.50;1.00
50804;DHT22;37205;51.434;6.756;2024-03-25T09:00:29;8.70;1.00
50804;DHT22;37205;51.434;6.756;2024-03-25T09:02:55;8.70;99.90
50804;DHT22;37205;51.434;6.756;2024-03-25T09:05:21;8.90;5.70
50804;DHT22;37205;51.434;6.756;2024-03-25T09:07:49;9.10;1.00
50804;DHT22;37205;51.434;6.756;2024-03-25T09:10:17;9.30;99.90
50804;DHT22;37205;51.434;6.756;2024-03-25T09:13:01;9.50;1.00
50804;DHT22;37205;51.434;6.756;2024-03-25T09:15:28;9.50;1.00
50804;DHT22;37205;51.434;6.756;2024-03-25T09:17:54;9.50;1.00
50804;DHT22;37205;51.434;6.756;2024-03-25T09:20:19;9.60;81.70
50804;DHT22;37205;51.434;6.756;2024-03-25T09:22:46;9.70;99.90
50804;DHT22;37205;51.434;6.756;2024-03-25T09:25:16;9.80;99.90
50804;DHT22;37205;51.434;6.756;2024-03-25T09:27:48;10.00;1.00
50804;DHT22;37205;51.434;6.756;2024-03-25T09:30:15;10.20;1.00
50804;DHT22;37205;51.434;6.756;2024-03-25T09:32:41;10.10;99.90
50804;DHT22;37205;51.434;6.756;2024-03-25T09:35:08;10.20;99.90
50804;DHT22;37205;51.434;6.756;2024-03-25T09:37:33;10.20;1.00
50804;DHT22;37205;51.434;6.756;2024-03-25T09:39:59;10.20;99.90
50804;DHT22;37205;51.434;6.756;2024-03-25T09:42:26;10.20;99.90
50804;DHT22;37205;51.434;6.756;2024-03-25T09:44:55;10.20;99.90
50804;DHT22;37205;51.434;6.756;2024-03-25T09:47:22;10.30;99.90
50804;DHT22;37205;51.434;6.756;2024-03-25T09:49:48;10.30;99.90
50804;DHT22;37205;51.434;6.756;2024-03-25T09:52:14;10.40;99.90
50804;DHT22;37205;51.434;6.756;2024-03-25T09:54:41;10.30;99.90
50804;DHT22;37205;51.434;6.756;2024-03-25T09:57:07;10.30;99.90
50804;DHT22;37205;51.434;6.756;2024-03-25T09:59:33;10.30;99.90
50804;DHT22;37205;51.434;6.756;2024-03-25T10:01:59;10.20;99.90
50804;DHT22;37205;51.434;6.756;2024-03-25T10:04:26;10.20;99.90
50804;DHT22;37205;51.434;6.756;2024-03-25T10:06:52;10.20;1.00
50804;DHT22;37205;51.434;6.756;2024-03-25T10:09:20;10.30;1.00
50804;DHT22;37205;51.434;6.756;2024-03-25T10:11:49;10.40;99.90
50804;DHT22;37205;51.434;6.756;2024-03-25T10:14:18;10.30;99.90
50804;DHT22;37205;51.434;6.756;2024-03-25T10:16:48;10.30;99.90
50804;DHT22;37205;51.434;6.756;2024-03-25T10:19:14;10.30;99.90
50804;DHT22;37205;51.434;6.756;2024-03-25T10:21:40;10.30;99.90
50804;DHT22;37205;51.434;6.756;2024-03-25T10:24:05;10.30;99.90
50804;DHT22;37205;51.434;6.756;2024-03-25T10:26:33;10.30;1.00
50804;DHT22;37205;51.434;6.756;2024-03-25T10:29:04;10.30;99.90
50804;DHT22;37205;51.434;6.756;2024-03-25T10:31:30;10.30;99.90
50804;DHT22;37205;51.434;6.756;2024-03-25T10:33:55;10.30;99.90
50804;DHT22;37205;51.434;6.756;2024-03-25T10:36:22;10.30;97.20
50804;DHT22;37205;51.434;6.756;2024-03-25T10:38:55;10.50;1.00
50804;DHT22;37205;51.434;6.756;2024-03-25T10:41:21;10.50;1.00
50804;DHT22;37205;51.434;6.756;2024-03-25T10:43:48;10.60;1.00
50804;DHT22;37205;51.434;6.756;2024-03-25T10:46:22;10.70;1.00
50804;DHT22;37205;51.434;6.756;2024-03-25T10:49:02;10.90;1.00
50804;DHT22;37205;51.434;6.756;2024-03-25T10:51:33;11.00;1.00
50804;DHT22;37205;51.434;6.756;2024-03-25T10:54:00;11.00;99.90
50804;DHT22;37205;51.434;6.756;2024-03-25T10:56:27;11.10;1.00
50804;DHT22;37205;51.434;6.756;2024-03-25T10:58:53;11.10;1.00
50804;DHT22;37205;51.434;6.756;2024-03-25T11:01:19;11.10;99.90
50804;DHT22;37205;51.434;6.756;2024-03-25T11:03:46;11.20;99.90
50804;DHT22;37205;51.434;6.756;2024-03-25T11:06:14;11.10;99.90
50804;DHT22;37205;51.434;6.756;2024-03-25T11:08:40;11.20;99.90
50804;DHT22;37205;51.434;6.756;2024-03-25T11:11:07;11.30;99.90
50804;DHT22;37205;51.434;6.756;2024-03-25T11:13:32;11.20;99.90
50804;DHT22;37205;51.434;6.756;2024-03-25T11:15:58;11.40;99.90
50804;DHT22;37205;51.434;6.756;2024-03-25T11:18:25;11.60;99.90
50804;DHT22;37205;51.434;6.756;2024-03-25T11:21:07;11.60;99.90
50804;DHT22;37205;51.434;6.756;2024-03-25T11:23:40;11.60;99.90
50804;DHT22;37205;51.434;6.756;2024-03-25T11:26:25;11.70;99.90
50804;DHT22;37205;51.434;6.756;2024-03-25T11:28:56;11.90;99.90
50804;DHT22;37205;51.434;6.756;2024-03-25T11:31:23;11.90;99.90
50804;DHT22;37205;51.434;6.756;2024-03-25T11:33:50;11.80;99.90
50804;DHT22;37205;51.434;6.756;2024-03-25T11:36:16;11.80;99.90
50804;DHT22;37205;51.434;6.756;2024-03-25T11:38:43;11.80;99.90
50804;DHT22;37205;51.434;6.756;2024-03-25T11:41:10;11.80;99.90
50804;DHT22;37205;51.434;6.756;2024-03-25T11:43:36;11.80;99.90
50804;DHT22;37205;51.434;6.756;2024-03-25T11:46:02;11.90;99.90
50804;DHT22;37205;51.434;6.756;2024-03-25T11:48:29;11.90;99.90
50804;DHT22;37205;51.434;6.756;2024-03-25T11:50:55;12.00;99.90
50804;DHT22;37205;51.434;6.756;2024-03-25T11:53:20;12.00;99.90
50804;DHT22;37205;51.434;6.756;2024-03-25T11:55:47;11.90;99.90
50804;DHT22;37205;51.434;6.756;2024-03-25T11:58:13;11.90;99.90
50804;DHT22;37205;51.434;6.756;2024-03-25T12:00:46;11.90;99.90
50804;DHT22;37205;51.434;6.756;2024-03-25T12:03:15;11.80;99.90
50804;DHT22;37205;51.434;6.756;2024-03-25T12:05:44;11.70;99.90
50804;DHT22;37205;51.434;6.756;2024-03-25T12:08:10;11.50;99.90
50804;DHT22;37205;51.434;6.756;2024-03-25T12:10:37;11.40;99.90
50804;DHT22;37205;51.434;6.756;2024-03-25T12:13:21;11.40;99.90
50804;DHT22;37205;51.434;6.756;2024-03-25T12:15:48;11.50;99.90
50804;DHT22;37205;51.434;6.756;2024-03-25T12:18:14;11.50;99.90
50804;DHT22;37205;51.434;6.756;2024-03-25T12:20:40;11.60;99.90
50804;DHT22;37205;51.434;6.756;2024-03-25T12:23:07;11.60;99.90
50804;DHT22;37205;51.434;6.756;2024-03-25T12:25:32;11.70;99.90
50804;DHT22;37205;51.434;6.756;2024-03-25T12:27:58;11.80;99.90
50804;DHT22;37205;51.434;6.756;2024-03-25T12:30:23;11.90;99.90
50804;DHT22;37205;51.434;6.756;2024-03-25T12:32:50;11.90;99.90
50804;DHT22;37205;51.434;6.756;2024-03-25T12:35:17;11.90;99.90
50804;DHT22;37205;51.434;6.756;2024-03-25T12:37:47;11.90;99.90
50804;DHT22;37205;51.434;6.756;2024-03-25T12:40:25;11.90;99.90
50804;DHT22;37205;51.434;6.756;2024-03-25T12:42:54;11.90;99.90
50804;DHT22;37205;51.434;6.756;2024-03-25T12:45:20;12.00;99.90
50804;DHT22;37205;51.434;6.756;2024-03-25T12:47:46;12.00;99.90
50804;DHT22;37205;51.434;6.756;2024-03-25T12:50:11;12.00;99.90
50804;DHT22;37205;51.434;6.756;2024-03-25T12:52:37;11.80;99.90
50804;DHT22;37205;51.434;6.756;2024-03-25T12:55:03;11.60;99.90
50804;DHT22;37205;51.434;6.756;2024-03-25T12:57:29;11.60;99.90
50804;DHT22;37205;51.434;6.756;2024-03-25T12:59:54;11.70;99.90
50804;DHT22;37205;51.434;6.756;2024-03-25T13:02:20;11.70;99.90
50804;DHT22;37205;51.434;6.756;2024-03-25T13:04:46;11.80;99.90
50804;DHT22;37205;51.434;6.756;2024-03-25T13:07:11;11.80;99.90
50804;DHT22;37205;51.434;6.756;2024-03-25T13:09:37;11.80;99.90
50804;DHT22;37205;51.434;6.756;2024-03-25T13:12:02;11.90;99.90
50804;DHT22;37205;51.434;6.756;2024-03-25T13:14:29;12.00;99.90
50804;DHT22;37205;51.434;6.756;2024-03-25T13:16:55;12.10;99.90
50804;DHT22;37205;51.434;6.756;2024-03-25T13:19:21;12.20;99.90
50804;DHT22;37205;51.434;6.756;2024-03-25T13:21:46;12.20;99.90
50804;DHT22;37205;51.434;6.756;2024-03-25T13:24:13;12.20;99.90
50804;DHT22;37205;51.434;6.756;2024-03-25T13:26:38;12.20;99.90
50804;DHT22;37205;51.434;6.756;2024-03-25T13:29:04;12.20;99.90
50804;DHT22;37205;51.434;6.756;2024-03-25T13:31:30;12.40;99.90
50804;DHT22;37205;51.434;6.756;2024-03-25T13:33:55;12.40;99.90
50804;DHT22;37205;51.434;6.756;2024-03-25T13:36:21;12.50;99.90
50804;DHT22;37205;51.434;6.756;2024-03-25T13:38:46;12.50;99.90
50804;DHT22;37205;51.434;6.756;2024-03-25T13:41:12;12.60;99.90
50804;DHT22;37205;51.434;6.756;2024-03-25T13:43:42;12.70;99.90
50804;DHT22;37205;51.434;6.756;2024-03-25T13:46:08;12.70;99.90
50804;DHT22;37205;51.434;6.756;2024-03-25T13:48:34;12.70;99.90
50804;DHT22;37205;51.434;6.756;2024-03-25T13:50:59;12.90;99.90
50804;DHT22;37205;51.434;6.756;2024-03-25T13:53:25;12.90;99.90
50804;DHT22;37205;51.434;6.756;2024-03-25T13:55:51;13.00;99.90
50804;DHT22;37205;51.434;6.756;2024-03-25T13:58:16;13.00;99.90
50804;DHT22;37205;51.434;6.756;2024-03-25T14:00:42;13.00;99.90
50804;DHT22;37205;51.434;6.756;2024-03-25T14:03:07;13.00;99.90
50804;DHT22;37205;51.434;6.756;2024-03-25T14:05:33;13.70;99.90
50804;DHT22;37205;51.434;6.756;2024-03-25T14:07:58;15.20;99.90
50804;DHT22;37205;51.434;6.756;2024-03-25T14:10:24;16.60;99.90
50804;DHT22;37205;51.434;6.756;2024-03-25T14:12:49;17.60;99.90
50804;DHT22;37205;51.434;6.756;2024-03-25T14:15:15;18.90;99.90
50804;DHT22;37205;51.434;6.756;2024-03-25T14:17:40;20.20;99.90
50804;DHT22;37205;51.434;6.756;2024-03-25T14:20:07;20.80;99.90
50804;DHT22;37205;51.434;6.756;2024-03-25T14:22:34;21.40;99.90
50804;DHT22;37205;51.434;6.756;2024-03-25T14:25:00;21.20;99.90
50804;DHT22;37205;51.434;6.756;2024-03-25T14:27:26;21.40;99.90
50804;DHT22;37205;51.434;6.756;2024-03-25T14:29:52;21.70;99.90
50804;DHT22;37205;51.434;6.756;2024-03-25T14:32:21;21.20;99.90
50804;DHT22;37205;51.434;6.756;2024-03-25T14:34:47;21.10;99.90
50804;DHT22;37205;51.434;6.756;2024-03-25T14:37:13;21.10;99.90
50804;DHT22;37205;51.434;6.756;2024-03-25T14:39:39;20.60;99.90
50804;DHT22;37205;51.434;6.756;2024-03-25T14:42:05;20.20;99.90
50804;DHT22;37205;51.434;6.756;2024-03-25T14:44:30;19.40;99.90
50804;DHT22;37205;51.434;6.756;2024-03-25T14:46:56;19.30;99.90
50804;DHT22;37205;51.434;6.756;2024-03-25T14:49:24;19.40;99.90
50804;DHT22;37205;51.434;6.756;2024-03-25T14:51:50;19.10;99.90
50804;DHT22;37205;51.434;6.756;2024-03-25T14:54:17;18.50;99.90
50804;DHT22;37205;51.434;6.756;2024-03-25T14:56:43;18.10;99.90
50804;DHT22;37205;51.434;6.756;2024-03-25T14:59:09;17.40;99.90
50804;DHT22;37205;51.434;6.756;2024-03-25T15:01:34;16.80;99.90
50804;DHT22;37205;51.434;6.756;2024-03-25T15:04:02;16.60;99.90
50804;DHT22;37205;51.434;6.756;2024-03-25T15:06:28;16.50;99.90
50804;DHT22;37205;51.434;6.756;2024-03-25T15:08:53;17.00;99.90
50804;DHT22;37205;51.434;6.756;2024-03-25T15:11:19;17.80;99.90
50804;DHT22;37205;51.434;6.756;2024-03-25T15:13:44;18.50;99.90
50804;DHT22;37205;51.434;6.756;2024-03-25T15:16:11;19.00;99.90
50804;DHT22;37205;51.434;6.756;2024-03-25T15:18:36;19.30;99.90
50804;DHT22;37205;51.434;6.756;2024-03-25T15:21:04;19.70;99.90
50804;DHT22;37205;51.434;6.756;2024-03-25T15:23:33;19.90;99.90
50804;DHT22;37205;51.434;6.756;2024-03-25T15:25:58;20.10;99.90
50804;DHT22;37205;51.434;6.756;2024-03-25T15:28:24;20.10;99.90
50804;DHT22;37205;51.434;6.756;2024-03-25T15:30:50;20.00;99.90
50804;DHT22;37205;51.434;6.756;2024-03-25T15:33:16;19.90;99.90
50804;DHT22;37205;51.434;6.756;2024-03-25T15:35:43;19.60;99.90
50804;DHT22;37205;51.434;6.756;2024-03-25T15:38:08;19.60;99.90